sensor_id;sensor_type;location;lat;lon;timestamp;temperature;humidity
8591;DHT22;4333;48.322;14.340;2022-08-11T00:00:21;16.20;99.90
8591;DHT22;4333;48.322;14.340;2022-08-11T00:03:04;16.20;99.90
8591;DHT22;4333;48.322;14.340;2022-08-11T00:05:31;16.20;99.90
8591;DHT22;4333;48.322;14.340;2022-08-11T00:07:57;16.20;99.90
8591;DHT22;4333;48.322;14.340;2022-08-11T00:10:28;16.10;99.90
8591;DHT22;4333;48.322;14.340;2022-08-11T00:12:57;16.00;99.90
8591;DHT22;4333;48.322;14.340;2022-08-11T00:15:25;16.00;99.90
8591;DHT22;4333;48.322;14.340;2022-08-11T00:17:59;16.00;99.90
8591;DHT22;4333;48.322;14.340;2022-08-11T00:20:39;15.90;99.90
8591;DHT22;4333;48.322;14.340;2022-08-11T00:23:11;15.90;99.90
8591;DHT22;4333;48.322;14.340;2022-08-11T00:25:43;16.00;99.90
8591;DHT22;4333;48.322;14.340;2022-08-11T00:28:25;16.10;99.90
8591;DHT22;4333;48.322;14.340;2022-08-11T00:30:55;16.10;99.90
8591;DHT22;4333;48.322;14.340;2022-08-11T00:33:25;16.00;99.90
8591;DHT22;4333;48.322;14.340;2022-08-11T00:35:58;15.90;99.90
8591;DHT22;4333;48.322;14.340;2022-08-11T00:38:28;15.90;99.90
8591;DHT22;4333;48.322;14.340;2022-08-11T00:41:15;15.90;99.90
8591;DHT22;4333;48.322;14.340;2022-08-11T00:55:44;16.00;99.90
8591;DHT22;4333;48.322;14.340;2022-08-11T01:32:22;15.60;99.90
8591;DHT22;4333;48.322;14.340;2022-08-11T01:46:27;15.60;99.90
8591;DHT22;4333;48.322;14.340;2022-08-11T01:49:20;15.60;99.90
8591;DHT22;4333;48.322;14.340;2022-08-11T01:52:03;15.60;99.90
8591;DHT22;4333;48.322;14.340;2022-08-11T01:55:06;15.70;99.90
8591;DHT22;4333;48.322;14.340;2022-08-11T02:00:28;15.80;99.90
8591;DHT22;4333;48.322;14.340;2022-08-11T02:03:15;15.80;99.90
8591;DHT22;4333;48.322;14.340;2022-08-11T02:06:01;15.80;99.90
8591;DHT22;4333;48.322;14.340;2022-08-11T02:09:19;15.80;99.90
8591;DHT22;4333;48.322;14.340;2022-08-11T02:11:50;15.70;99.90
8591;DHT22;4333;48.322;14.340;2022-08-11T02:14:30;15.70;99.90
8591;DHT22;4333;48.322;14.340;2022-08-11T02:19:54;15.80;99.90
8591;DHT22;4333;48.322;14.340;2022-08-11T02:31:49;15.80;99.90
8591;DHT22;4333;48.322;14.340;2022-08-11T02:34:46;15.80;99.90
8591;DHT22;4333;48.322;14.340;2022-08-11T02:40:33;15.70;99.90
8591;DHT22;4333;48.322;14.340;2022-08-11T02:43:08;15.70;99.90
8591;DHT22;4333;48.322;14.340;2022-08-11T02:49:13;15.60;99.90
8591;DHT22;4333;48.322;14.340;2022-08-11T02:57:40;15.70;99.90
8591;DHT22;4333;48.322;14.340;2022-08-11T03:00:10;15.70;99.90
8591;DHT22;4333;48.322;14.340;2022-08-11T03:05:57;15.70;99.90
8591;DHT22;4333;48.322;14.340;2022-08-11T03:08:45;15.70;99.90
8591;DHT22;4333;48.322;14.340;2022-08-11T03:11:19;15.70;99.90
8591;DHT22;4333;48.322;14.340;2022-08-11T03:26:32;15.60;99.90
8591;DHT22;4333;48.322;14.340;2022-08-11T03:29:22;15.80;99.90
8591;DHT22;4333;48.322;14.340;2022-08-11T03:34:56;15.70;99.90
8591;DHT22;4333;48.322;14.340;2022-08-11T03:52:26;15.50;99.90
8591;DHT22;4333;48.322;14.340;2022-08-11T04:06:44;15.40;99.90
8591;DHT22;4333;48.322;14.340;2022-08-11T04:15:12;15.40;99.90
8591;DHT22;4333;48.322;14.340;2022-08-11T04:18:24;15.50;99.90
8591;DHT22;4333;48.322;14.340;2022-08-11T04:21:08;15.50;99.90
8591;DHT22;4333;48.322;14.340;2022-08-11T04:23:49;15.50;99.90
8591;DHT22;4333;48.322;14.340;2022-08-11T04:37:37;15.80;99.90
8591;DHT22;4333;48.322;14.340;2022-08-11T04:43:55;15.80;99.90
8591;DHT22;4333;48.322;14.340;2022-08-11T04:47:11;15.90;99.90
8591;DHT22;4333;48.322;14.340;2022-08-11T04:49:47;15.90;99.90
8591;DHT22;4333;48.322;14.340;2022-08-11T05:02:45;16.00;99.90
8591;DHT22;4333;48.322;14.340;2022-08-11T05:13:12;16.00;99.90
8591;DHT22;4333;48.322;14.340;2022-08-11T05:16:09;15.90;99.90
8591;DHT22;4333;48.322;14.340;2022-08-11T05:18:59;15.80;99.90
8591;DHT22;4333;48.322;14.340;2022-08-11T05:21:51;15.90;99.90
8591;DHT22;4333;48.322;14.340;2022-08-11T05:24:44;15.90;99.90
8591;DHT22;4333;48.322;14.340;2022-08-11T05:27:37;16.00;99.90
8591;DHT22;4333;48.322;14.340;2022-08-11T05:30:28;16.10;99.90
8591;DHT22;4333;48.322;14.340;2022-08-11T05:33:22;16.20;99.90
8591;DHT22;4333;48.322;14.340;2022-08-11T05:36:14;16.20;99.90
8591;DHT22;4333;48.322;14.340;2022-08-11T05:38:53;16.30;99.90
8591;DHT22;4333;48.322;14.340;2022-08-11T05:41:40;16.30;99.90
8591;DHT22;4333;48.322;14.340;2022-08-11T05:44:26;16.50;99.90
8591;DHT22;4333;48.322;14.340;2022-08-11T05:47:20;17.50;99.90
8591;DHT22;4333;48.322;14.340;2022-08-11T05:50:12;18.10;99.90
8591;DHT22;4333;48.322;14.340;2022-08-11T05:52:56;18.50;99.90
8591;DHT22;4333;48.322;14.340;2022-08-11T05:55:44;18.60;99.90
8591;DHT22;4333;48.322;14.340;2022-08-11T05:58:40;19.80;99.90
8591;DHT22;4333;48.322;14.340;2022-08-11T06:01:20;21.40;98.40
8591;DHT22;4333;48.322;14.340;2022-08-11T06:03:51;22.50;95.90
8591;DHT22;4333;48.322;14.340;2022-08-11T06:06:36;23.50;87.80
8591;DHT22;4333;48.322;14.340;2022-08-11T06:09:06;25.30;79.00
8591;DHT22;4333;48.322;14.340;2022-08-11T06:11:41;25.50;69.40
8591;DHT22;4333;48.322;14.340;2022-08-11T06:14:08;25.80;64.20
8591;DHT22;4333;48.322;14.340;2022-08-11T06:16:36;26.30;62.10
8591;DHT22;4333;48.322;14.340;2022-08-11T06:19:05;26.70;57.80
8591;DHT22;4333;48.322;14.340;2022-08-11T06:21:35;27.30;53.60
8591;DHT22;4333;48.322;14.340;2022-08-11T06:24:11;28.60;47.50
8591;DHT22;4333;48.322;14.340;2022-08-11T06:26:39;28.40;45.60
8591;DHT22;4333;48.322;14.340;2022-08-11T06:29:05;29.00;45.70
8591;DHT22;4333;48.322;14.340;2022-08-11T06:31:31;29.50;39.50
8591;DHT22;4333;48.322;14.340;2022-08-11T06:34:14;29.60;40.30
8591;DHT22;4333;48.322;14.340;2022-08-11T06:37:21;29.80;39.70
8591;DHT22;4333;48.322;14.340;2022-08-11T06:42:55;29.60;36.40
8591;DHT22;4333;48.322;14.340;2022-08-11T06:48:20;30.50;29.50
8591;DHT22;4333;48.322;14.340;2022-08-11T06:50:49;30.60;30.00
8591;DHT22;4333;48.322;14.340;2022-08-11T06:53:35;29.70;27.10
8591;DHT22;4333;48.322;14.340;2022-08-11T06:56:03;29.90;27.90
8591;DHT22;4333;48.322;14.340;2022-08-11T06:58:49;29.60;28.70
8591;DHT22;4333;48.322;14.340;2022-08-11T07:01:41;31.00;27.70
8591;DHT22;4333;48.322;14.340;2022-08-11T07:04:25;31.90;27.60
8591;DHT22;4333;48.322;14.340;2022-08-11T07:10:19;33.00;21.80
8591;DHT22;4333;48.322;14.340;2022-08-11T07:13:08;32.50;21.80
8591;DHT22;4333;48.322;14.340;2022-08-11T07:15:54;31.30;20.00
8591;DHT22;4333;48.322;14.340;2022-08-11T07:18:26;31.60;21.10
8591;DHT22;4333;48.322;14.340;2022-08-11T07:21:30;31.70;21.90
8591;DHT22;4333;48.322;14.340;2022-08-11T07:24:22;31.00;24.10
8591;DHT22;4333;48.322;14.340;2022-08-11T07:27:13;31.30;22.20
8591;DHT22;4333;48.322;14.340;2022-08-11T07:30:07;30.40;21.60
8591;DHT22;4333;48.322;14.340;2022-08-11T07:32:57;29.60;21.30
8591;DHT22;4333;48.322;14.340;2022-08-11T07:35:27;29.00;23.40
8591;DHT22;4333;48.322;14.340;2022-08-11T07:38:08;27.60;25.70
8591;DHT22;4333;48.322;14.340;2022-08-11T07:40:36;26.90;26.50
8591;DHT22;4333;48.322;14.340;2022-08-11T07:43:03;26.80;28.50
8591;DHT22;4333;48.322;14.340;2022-08-11T07:45:33;26.90;28.00
8591;DHT22;4333;48.322;14.340;2022-08-11T07:48:18;26.80;26.80
8591;DHT22;4333;48.322;14.340;2022-08-11T07:51:03;26.60;28.30
8591;DHT22;4333;48.322;14.340;2022-08-11T07:53:47;26.00;26.70
8591;DHT22;4333;48.322;14.340;2022-08-11T07:56:15;26.10;26.70
8591;DHT22;4333;48.322;14.340;2022-08-11T07:58:44;26.50;27.20
8591;DHT22;4333;48.322;14.340;2022-08-11T08:01:29;26.50;27.80
8591;DHT22;4333;48.322;14.340;2022-08-11T08:04:17;26.20;27.50
8591;DHT22;4333;48.322;14.340;2022-08-11T08:07:03;25.80;29.00
8591;DHT22;4333;48.322;14.340;2022-08-11T08:09:50;25.60;28.70
8591;DHT22;4333;48.322;14.340;2022-08-11T08:12:35;25.30;30.90
8591;DHT22;4333;48.322;14.340;2022-08-11T08:15:21;25.20;31.70
8591;DHT22;4333;48.322;14.340;2022-08-11T08:18:07;25.10;31.60
8591;DHT22;4333;48.322;14.340;2022-08-11T08:20:47;25.00;30.90
8591;DHT22;4333;48.322;14.340;2022-08-11T08:23:20;25.00;28.90
8591;DHT22;4333;48.322;14.340;2022-08-11T08:25:58;25.20;29.50
8591;DHT22;4333;48.322;14.340;2022-08-11T08:28:27;25.70;30.60
8591;DHT22;4333;48.322;14.340;2022-08-11T08:30:54;25.70;28.70
8591;DHT22;4333;48.322;14.340;2022-08-11T08:33:23;26.00;27.10
8591;DHT22;4333;48.322;14.340;2022-08-11T08:35:52;26.30;27.30
8591;DHT22;4333;48.322;14.340;2022-08-11T08:38:38;25.90;26.40
8591;DHT22;4333;48.322;14.340;2022-08-11T08:41:04;25.90;28.30
8591;DHT22;4333;48.322;14.340;2022-08-11T08:43:31;26.10;28.10
8591;DHT22;4333;48.322;14.340;2022-08-11T08:46:00;26.50;25.70
8591;DHT22;4333;48.322;14.340;2022-08-11T08:48:30;26.40;28.10
8591;DHT22;4333;48.322;14.340;2022-08-11T08:51:01;26.90;23.90
8591;DHT22;4333;48.322;14.340;2022-08-11T08:53:49;26.60;23.70
8591;DHT22;4333;48.322;14.340;2022-08-11T08:56:16;26.00;23.40
8591;DHT22;4333;48.322;14.340;2022-08-11T08:58:45;26.60;24.00
8591;DHT22;4333;48.322;14.340;2022-08-11T09:01:14;27.50;22.60
8591;DHT22;4333;48.322;14.340;2022-08-11T09:03:41;27.50;22.10
8591;DHT22;4333;48.322;14.340;2022-08-11T09:06:08;27.40;22.30
8591;DHT22;4333;48.322;14.340;2022-08-11T09:08:35;27.30;22.70
8591;DHT22;4333;48.322;14.340;2022-08-11T09:11:03;27.50;22.00
8591;DHT22;4333;48.322;14.340;2022-08-11T09:13:48;27.60;21.20
8591;DHT22;4333;48.322;14.340;2022-08-11T09:16:15;26.60;22.90
8591;DHT22;4333;48.322;14.340;2022-08-11T09:18:41;26.80;23.00
8591;DHT22;4333;48.322;14.340;2022-08-11T09:21:11;26.80;21.70
8591;DHT22;4333;48.322;14.340;2022-08-11T09:23:42;26.80;22.30
8591;DHT22;4333;48.322;14.340;2022-08-11T09:26:53;27.30;23.10
8591;DHT22;4333;48.322;14.340;2022-08-11T09:29:29;27.70;21.40
8591;DHT22;4333;48.322;14.340;2022-08-11T09:31:57;28.40;21.30
8591;DHT22;4333;48.322;14.340;2022-08-11T09:34:24;29.10;21.30
8591;DHT22;4333;48.322;14.340;2022-08-11T09:36:51;29.30;18.00
8591;DHT22;4333;48.322;14.340;2022-08-11T09:39:38;29.00;20.20
8591;DHT22;4333;48.322;14.340;2022-08-11T09:42:26;28.60;18.30
8591;DHT22;4333;48.322;14.340;2022-08-11T09:45:15;27.10;20.60
8591;DHT22;4333;48.322;14.340;2022-08-11T09:47:42;27.70;20.80
8591;DHT22;4333;48.322;14.340;2022-08-11T09:50:10;28.50;20.40
8591;DHT22;4333;48.322;14.340;2022-08-11T09:52:40;28.70;19.50
8591;DHT22;4333;48.322;14.340;2022-08-11T09:55:07;29.20;21.40
8591;DHT22;4333;48.322;14.340;2022-08-11T09:57:41;29.70;20.00
8591;DHT22;4333;48.322;14.340;2022-08-11T10:00:32;30.20;18.80
8591;DHT22;4333;48.322;14.340;2022-08-11T10:03:05;29.20;18.10
8591;DHT22;4333;48.322;14.340;2022-08-11T10:05:32;27.90;19.50
8591;DHT22;4333;48.322;14.340;2022-08-11T10:08:22;28.40;23.30
8591;DHT22;4333;48.322;14.340;2022-08-11T10:10:51;28.70;21.00
8591;DHT22;4333;48.322;14.340;2022-08-11T10:13:21;29.20;20.30
8591;DHT22;4333;48.322;14.340;2022-08-11T10:15:54;29.40;17.90
8591;DHT22;4333;48.322;14.340;2022-08-11T10:18:33;29.70;18.80
8591;DHT22;4333;48.322;14.340;2022-08-11T10:21:24;28.20;18.70
8591;DHT22;4333;48.322;14.340;2022-08-11T10:23:58;27.50;20.90
8591;DHT22;4333;48.322;14.340;2022-08-11T10:26:44;27.70;20.40
8591;DHT22;4333;48.322;14.340;2022-08-11T10:29:39;27.60;19.10
8591;DHT22;4333;48.322;14.340;2022-08-11T10:32:28;27.40;19.60
8591;DHT22;4333;48.322;14.340;2022-08-11T10:35:20;27.60;19.90
8591;DHT22;4333;48.322;14.340;2022-08-11T10:37:47;27.50;19.20
8591;DHT22;4333;48.322;14.340;2022-08-11T10:40:16;27.30;19.50
8591;DHT22;4333;48.322;14.340;2022-08-11T10:42:43;27.90;20.20
8591;DHT22;4333;48.322;14.340;2022-08-11T10:45:37;28.60;18.20
8591;DHT22;4333;48.322;14.340;2022-08-11T10:48:27;29.00;18.30
8591;DHT22;4333;48.322;14.340;2022-08-11T10:50:54;29.10;16.30
8591;DHT22;4333;48.322;14.340;2022-08-11T10:53:47;28.20;17.30
8591;DHT22;4333;48.322;14.340;2022-08-11T10:56:37;28.70;17.00
8591;DHT22;4333;48.322;14.340;2022-08-11T10:59:26;28.20;15.80
8591;DHT22;4333;48.322;14.340;2022-08-11T11:01:55;28.40;16.70
8591;DHT22;4333;48.322;14.340;2022-08-11T11:07:22;28.00;18.40
8591;DHT22;4333;48.322;14.340;2022-08-11T11:10:02;28.60;17.70
8591;DHT22;4333;48.322;14.340;2022-08-11T11:12:46;28.30;15.90
8591;DHT22;4333;48.322;14.340;2022-08-11T11:15:39;27.60;15.20
8591;DHT22;4333;48.322;14.340;2022-08-11T11:18:28;27.40;16.80
8591;DHT22;4333;48.322;14.340;2022-08-11T11:35:09;26.70;17.60
8591;DHT22;4333;48.322;14.340;2022-08-11T11:37:40;26.90;18.00
8591;DHT22;4333;48.322;14.340;2022-08-11T11:40:12;26.60;17.70
8591;DHT22;4333;48.322;14.340;2022-08-11T11:42:40;27.00;17.70
8591;DHT22;4333;48.322;14.340;2022-08-11T11:45:10;27.20;17.90
8591;DHT22;4333;48.322;14.340;2022-08-11T11:47:40;27.20;16.60
8591;DHT22;4333;48.322;14.340;2022-08-11T11:50:09;26.80;16.60
8591;DHT22;4333;48.322;14.340;2022-08-11T11:52:37;27.10;17.30
8591;DHT22;4333;48.322;14.340;2022-08-11T11:55:04;27.30;16.90
8591;DHT22;4333;48.322;14.340;2022-08-11T11:57:32;27.30;16.80
8591;DHT22;4333;48.322;14.340;2022-08-11T12:00:18;27.00;15.80
8591;DHT22;4333;48.322;14.340;2022-08-11T12:03:08;27.40;17.60
8591;DHT22;4333;48.322;14.340;2022-08-11T12:05:36;28.50;17.30
8591;DHT22;4333;48.322;14.340;2022-08-11T12:08:04;29.00;16.50
8591;DHT22;4333;48.322;14.340;2022-08-11T12:13:10;28.50;15.00
8591;DHT22;4333;48.322;14.340;2022-08-11T12:15:55;28.50;14.70
8591;DHT22;4333;48.322;14.340;2022-08-11T12:18:22;28.00;15.40
8591;DHT22;4333;48.322;14.340;2022-08-11T12:20:48;28.50;16.60
8591;DHT22;4333;48.322;14.340;2022-08-11T12:23:14;28.00;15.80
8591;DHT22;4333;48.322;14.340;2022-08-11T12:25:59;27.70;15.60
8591;DHT22;4333;48.322;14.340;2022-08-11T12:28:44;27.40;15.60
8591;DHT22;4333;48.322;14.340;2022-08-11T12:31:14;27.60;15.30
8591;DHT22;4333;48.322;14.340;2022-08-11T12:33:39;27.90;15.90
8591;DHT22;4333;48.322;14.340;2022-08-11T12:36:07;28.70;16.00
8591;DHT22;4333;48.322;14.340;2022-08-11T12:38:34;29.00;15.50
8591;DHT22;4333;48.322;14.340;2022-08-11T12:41:01;29.70;14.70
8591;DHT22;4333;48.322;14.340;2022-08-11T12:43:46;28.90;13.80
8591;DHT22;4333;48.322;14.340;2022-08-11T12:46:34;28.50;13.00
8591;DHT22;4333;48.322;14.340;2022-08-11T12:49:09;28.40;14.20
8591;DHT22;4333;48.322;14.340;2022-08-11T12:52:02;28.50;15.10
8591;DHT22;4333;48.322;14.340;2022-08-11T12:57:09;28.40;13.70
8591;DHT22;4333;48.322;14.340;2022-08-11T12:59:54;28.50;14.50
8591;DHT22;4333;48.322;14.340;2022-08-11T13:02:40;28.90;13.10
8591;DHT22;4333;48.322;14.340;2022-08-11T13:05:25;28.50;12.40
8591;DHT22;4333;48.322;14.340;2022-08-11T13:07:51;28.20;12.50
8591;DHT22;4333;48.322;14.340;2022-08-11T13:10:19;28.10;12.10
8591;DHT22;4333;48.322;14.340;2022-08-11T13:13:06;28.00;12.90
8591;DHT22;4333;48.322;14.340;2022-08-11T13:15:33;27.70;11.70
8591;DHT22;4333;48.322;14.340;2022-08-11T13:18:01;27.70;12.70
8591;DHT22;4333;48.322;14.340;2022-08-11T13:20:28;28.30;13.70
8591;DHT22;4333;48.322;14.340;2022-08-11T13:22:56;29.20;13.70
8591;DHT22;4333;48.322;14.340;2022-08-11T13:25:26;29.70;11.20
8591;DHT22;4333;48.322;14.340;2022-08-11T13:27:55;28.90;11.00
8591;DHT22;4333;48.322;14.340;2022-08-11T13:30:28;28.40;12.70
8591;DHT22;4333;48.322;14.340;2022-08-11T13:33:14;28.20;13.10
8591;DHT22;4333;48.322;14.340;2022-08-11T13:35:46;28.00;12.30
8591;DHT22;4333;48.322;14.340;2022-08-11T13:38:16;27.70;12.80
8591;DHT22;4333;48.322;14.340;2022-08-11T13:40:44;27.80;12.40
8591;DHT22;4333;48.322;14.340;2022-08-11T13:43:12;28.00;13.20
8591;DHT22;4333;48.322;14.340;2022-08-11T13:45:38;28.40;11.80
8591;DHT22;4333;48.322;14.340;2022-08-11T13:48:07;28.80;12.60
8591;DHT22;4333;48.322;14.340;2022-08-11T13:50:34;28.90;11.60
8591;DHT22;4333;48.322;14.340;2022-08-11T13:53:29;28.60;12.50
8591;DHT22;4333;48.322;14.340;2022-08-11T13:55:57;28.20;12.10
8591;DHT22;4333;48.322;14.340;2022-08-11T13:58:25;28.00;12.40
8591;DHT22;4333;48.322;14.340;2022-08-11T14:00:54;28.10;11.40
8591;DHT22;4333;48.322;14.340;2022-08-11T14:03:23;28.30;11.20
8591;DHT22;4333;48.322;14.340;2022-08-11T14:05:52;28.30;11.70
8591;DHT22;4333;48.322;14.340;2022-08-11T14:08:25;28.70;11.40
8591;DHT22;4333;48.322;14.340;2022-08-11T14:10:54;28.30;11.20
8591;DHT22;4333;48.322;14.340;2022-08-11T14:13:44;28.00;11.40
8591;DHT22;4333;48.322;14.340;2022-08-11T14:16:15;28.00;11.90
8591;DHT22;4333;48.322;14.340;2022-08-11T14:18:45;28.10;11.80
8591;DHT22;4333;48.322;14.340;2022-08-11T14:21:14;28.10;12.00
8591;DHT22;4333;48.322;14.340;2022-08-11T14:24:00;28.10;12.50
8591;DHT22;4333;48.322;14.340;2022-08-11T14:26:28;28.30;11.40
8591;DHT22;4333;48.322;14.340;2022-08-11T14:29:09;28.30;11.40
8591;DHT22;4333;48.322;14.340;2022-08-11T14:31:46;28.60;12.40
8591;DHT22;4333;48.322;14.340;2022-08-11T14:34:17;29.20;12.50
8591;DHT22;4333;48.322;14.340;2022-08-11T14:36:49;29.80;12.50
8591;DHT22;4333;48.322;14.340;2022-08-11T14:39:18;30.30;11.90
8591;DHT22;4333;48.322;14.340;2022-08-11T14:41:58;30.70;11.10
8591;DHT22;4333;48.322;14.340;2022-08-11T14:44:48;30.70;10.30
8591;DHT22;4333;48.322;14.340;2022-08-11T14:47:37;29.30;9.80
8591;DHT22;4333;48.322;14.340;2022-08-11T14:50:05;28.60;10.40
8591;DHT22;4333;48.322;14.340;2022-08-11T14:52:33;28.60;11.50
8591;DHT22;4333;48.322;14.340;2022-08-11T14:55:00;29.20;10.00
8591;DHT22;4333;48.322;14.340;2022-08-11T14:57:45;28.80;11.00
8591;DHT22;4333;48.322;14.340;2022-08-11T15:00:14;28.20;11.10
8591;DHT22;4333;48.322;14.340;2022-08-11T15:02:43;28.00;12.00
8591;DHT22;4333;48.322;14.340;2022-08-11T15:05:30;27.70;12.70
8591;DHT22;4333;48.322;14.340;2022-08-11T15:07:58;27.50;13.10
8591;DHT22;4333;48.322;14.340;2022-08-11T15:10:25;27.80;13.60
8591;DHT22;4333;48.322;14.340;2022-08-11T15:12:52;28.00;12.80
8591;DHT22;4333;48.322;14.340;2022-08-11T15:15:21;27.90;12.00
8591;DHT22;4333;48.322;14.340;2022-08-11T15:18:10;28.00;13.00
8591;DHT22;4333;48.322;14.340;2022-08-11T15:20:36;28.20;13.30
8591;DHT22;4333;48.322;14.340;2022-08-11T15:23:23;28.20;13.00
8591;DHT22;4333;48.322;14.340;2022-08-11T15:26:16;28.70;14.80
8591;DHT22;4333;48.322;14.340;2022-08-11T15:28:49;28.40;13.40
8591;DHT22;4333;48.322;14.340;2022-08-11T15:31:36;28.10;14.10
8591;DHT22;4333;48.322;14.340;2022-08-11T15:34:25;27.80;14.80
8591;DHT22;4333;48.322;14.340;2022-08-11T15:37:15;27.80;13.40
8591;DHT22;4333;48.322;14.340;2022-08-11T15:42:52;27.20;14.30
8591;DHT22;4333;48.322;14.340;2022-08-11T15:45:40;27.00;14.30
8591;DHT22;4333;48.322;14.340;2022-08-11T15:48:26;27.30;15.60
8591;DHT22;4333;48.322;14.340;2022-08-11T15:50:56;28.00;15.10
8591;DHT22;4333;48.322;14.340;2022-08-11T15:55:55;28.40;13.90
8591;DHT22;4333;48.322;14.340;2022-08-11T15:58:29;28.10;13.20
8591;DHT22;4333;48.322;14.340;2022-08-11T16:01:18;28.20;14.20
8591;DHT22;4333;48.322;14.340;2022-08-11T16:04:06;28.10;13.90
8591;DHT22;4333;48.322;14.340;2022-08-11T16:06:59;27.80;14.60
8591;DHT22;4333;48.322;14.340;2022-08-11T16:09:43;27.80;13.80
8591;DHT22;4333;48.322;14.340;2022-08-11T16:12:14;27.60;13.50
8591;DHT22;4333;48.322;14.340;2022-08-11T16:14:48;27.60;14.60
8591;DHT22;4333;48.322;14.340;2022-08-11T16:17:40;27.70;14.50
8591;DHT22;4333;48.322;14.340;2022-08-11T16:20:10;27.40;13.00
8591;DHT22;4333;48.322;14.340;2022-08-11T16:22:38;27.00;13.70
8591;DHT22;4333;48.322;14.340;2022-08-11T16:25:15;27.00;14.20
8591;DHT22;4333;48.322;14.340;2022-08-11T16:27:45;27.10;14.10
8591;DHT22;4333;48.322;14.340;2022-08-11T16:30:11;27.50;14.60
8591;DHT22;4333;48.322;14.340;2022-08-11T16:32:42;27.50;14.90
8591;DHT22;4333;48.322;14.340;2022-08-11T16:35:16;27.40;13.70
8591;DHT22;4333;48.322;14.340;2022-08-11T16:38:02;27.20;15.10
8591;DHT22;4333;48.322;14.340;2022-08-11T16:40:50;27.20;15.30
8591;DHT22;4333;48.322;14.340;2022-08-11T16:43:19;27.10;15.30
8591;DHT22;4333;48.322;14.340;2022-08-11T16:46:07;27.10;14.00
8591;DHT22;4333;48.322;14.340;2022-08-11T16:48:55;26.90;15.20
8591;DHT22;4333;48.322;14.340;2022-08-11T16:51:21;26.90;15.00
8591;DHT22;4333;48.322;14.340;2022-08-11T16:53:53;26.90;15.20
8591;DHT22;4333;48.322;14.340;2022-08-11T16:56:24;26.90;14.40
8591;DHT22;4333;48.322;14.340;2022-08-11T16:58:54;26.80;16.10
8591;DHT22;4333;48.322;14.340;2022-08-11T17:01:51;26.60;15.00
8591;DHT22;4333;48.322;14.340;2022-08-11T17:04:38;26.50;16.00
8591;DHT22;4333;48.322;14.340;2022-08-11T17:07:28;26.50;16.10
8591;DHT22;4333;48.322;14.340;2022-08-11T17:10:24;26.50;17.10
8591;DHT22;4333;48.322;14.340;2022-08-11T17:13:10;26.30;17.20
8591;DHT22;4333;48.322;14.340;2022-08-11T17:15:49;26.20;18.40
8591;DHT22;4333;48.322;14.340;2022-08-11T17:19:02;26.00;17.00
8591;DHT22;4333;48.322;14.340;2022-08-11T17:21:32;25.80;15.70
8591;DHT22;4333;48.322;14.340;2022-08-11T17:24:09;25.70;16.70
8591;DHT22;4333;48.322;14.340;2022-08-11T17:29:36;25.40;17.20
8591;DHT22;4333;48.322;14.340;2022-08-11T17:32:04;25.30;17.30
8591;DHT22;4333;48.322;14.340;2022-08-11T17:38:17;25.00;18.60
8591;DHT22;4333;48.322;14.340;2022-08-11T17:40:51;24.90;19.50
8591;DHT22;4333;48.322;14.340;2022-08-11T17:43:36;24.80;19.80
8591;DHT22;4333;48.322;14.340;2022-08-11T17:46:22;24.80;19.50
8591;DHT22;4333;48.322;14.340;2022-08-11T17:49:08;24.70;20.80
8591;DHT22;4333;48.322;14.340;2022-08-11T17:51:36;24.60;22.60
8591;DHT22;4333;48.322;14.340;2022-08-11T17:54:25;24.30;21.30
8591;DHT22;4333;48.322;14.340;2022-08-11T17:57:10;24.20;24.50
8591;DHT22;4333;48.322;14.340;2022-08-11T17:59:57;24.00;23.90
8591;DHT22;4333;48.322;14.340;2022-08-11T18:05:17;23.60;26.00
8591;DHT22;4333;48.322;14.340;2022-08-11T18:07:48;23.40;28.30
8591;DHT22;4333;48.322;14.340;2022-08-11T18:10:35;23.00;26.40
8591;DHT22;4333;48.322;14.340;2022-08-11T18:13:22;22.80;27.40
8591;DHT22;4333;48.322;14.340;2022-08-11T18:16:07;22.60;33.90
8591;DHT22;4333;48.322;14.340;2022-08-11T18:18:54;22.40;30.70
8591;DHT22;4333;48.322;14.340;2022-08-11T18:21:45;22.10;33.40
8591;DHT22;4333;48.322;14.340;2022-08-11T18:24:37;21.80;32.90
8591;DHT22;4333;48.322;14.340;2022-08-11T18:27:27;21.70;32.50
8591;DHT22;4333;48.322;14.340;2022-08-11T18:30:15;21.70;35.60
8591;DHT22;4333;48.322;14.340;2022-08-11T18:33:02;21.60;37.50
8591;DHT22;4333;48.322;14.340;2022-08-11T18:35:52;21.50;37.90
8591;DHT22;4333;48.322;14.340;2022-08-11T18:38:38;21.30;38.50
8591;DHT22;4333;48.322;14.340;2022-08-11T18:41:24;21.20;38.70
8591;DHT22;4333;48.322;14.340;2022-08-11T18:44:12;21.20;36.00
8591;DHT22;4333;48.322;14.340;2022-08-11T18:47:09;21.10;42.00
8591;DHT22;4333;48.322;14.340;2022-08-11T18:49:54;21.00;41.10
8591;DHT22;4333;48.322;14.340;2022-08-11T18:52:44;21.00;38.20
8591;DHT22;4333;48.322;14.340;2022-08-11T18:55:29;21.00;40.70
8591;DHT22;4333;48.322;14.340;2022-08-11T18:58:16;20.90;41.10
8591;DHT22;4333;48.322;14.340;2022-08-11T19:01:04;20.90;40.70
8591;DHT22;4333;48.322;14.340;2022-08-11T19:03:51;20.70;45.10
8591;DHT22;4333;48.322;14.340;2022-08-11T19:06:37;20.60;42.80
8591;DHT22;4333;48.322;14.340;2022-08-11T19:09:23;20.60;45.00
8591;DHT22;4333;48.322;14.340;2022-08-11T19:12:10;20.50;46.70
8591;DHT22;4333;48.322;14.340;2022-08-11T19:14:57;20.40;48.30
8591;DHT22;4333;48.322;14.340;2022-08-11T19:17:43;20.30;48.20
8591;DHT22;4333;48.322;14.340;2022-08-11T19:20:29;20.30;46.50
8591;DHT22;4333;48.322;14.340;2022-08-11T19:23:23;20.30;53.10
8591;DHT22;4333;48.322;14.340;2022-08-11T19:26:08;20.00;50.90
8591;DHT22;4333;48.322;14.340;2022-08-11T19:28:56;20.00;50.10
8591;DHT22;4333;48.322;14.340;2022-08-11T19:31:42;20.00;50.70
8591;DHT22;4333;48.322;14.340;2022-08-11T19:34:28;20.00;48.10
8591;DHT22;4333;48.322;14.340;2022-08-11T19:37:14;20.00;55.20
8591;DHT22;4333;48.322;14.340;2022-08-11T19:40:06;19.90;53.50
8591;DHT22;4333;48.322;14.340;2022-08-11T19:42:57;19.70;50.80
8591;DHT22;4333;48.322;14.340;2022-08-11T19:45:43;19.70;52.60
8591;DHT22;4333;48.322;14.340;2022-08-11T19:48:32;19.70;52.90
8591;DHT22;4333;48.322;14.340;2022-08-11T19:51:20;19.60;55.00
8591;DHT22;4333;48.322;14.340;2022-08-11T19:54:05;19.50;54.70
8591;DHT22;4333;48.322;14.340;2022-08-11T19:56:51;19.30;57.10
8591;DHT22;4333;48.322;14.340;2022-08-11T19:59:35;19.20;57.80
8591;DHT22;4333;48.322;14.340;2022-08-11T20:02:20;19.10;63.30
8591;DHT22;4333;48.322;14.340;2022-08-11T20:05:08;19.10;63.80
8591;DHT22;4333;48.322;14.340;2022-08-11T20:07:57;19.00;64.00
8591;DHT22;4333;48.322;14.340;2022-08-11T20:10:44;18.90;63.30
8591;DHT22;4333;48.322;14.340;2022-08-11T20:13:32;18.90;62.20
8591;DHT22;4333;48.322;14.340;2022-08-11T20:16:19;19.00;64.30
8591;DHT22;4333;48.322;14.340;2022-08-11T20:19:06;19.00;63.20
8591;DHT22;4333;48.322;14.340;2022-08-11T20:21:53;19.00;65.50
8591;DHT22;4333;48.322;14.340;2022-08-11T20:24:42;18.90;67.80
8591;DHT22;4333;48.322;14.340;2022-08-11T20:27:27;18.70;73.70
8591;DHT22;4333;48.322;14.340;2022-08-11T20:30:12;18.50;73.20
8591;DHT22;4333;48.322;14.340;2022-08-11T20:32:59;18.50;76.00
8591;DHT22;4333;48.322;14.340;2022-08-11T20:35:44;18.60;74.80